createdAt,value
2023-05-13T00:01:38.667Z,30.43
2023-05-13T00:04:07.454Z,29.10
2023-05-13T00:06:36.665Z,29.60
2023-05-13T00:09:05.283Z,29.63
2023-05-13T00:11:33.727Z,29.03
2023-05-13T00:14:01.964Z,29.13
2023-05-13T00:16:30.709Z,26.33
2023-05-13T00:19:00.508Z,27.27
2023-05-13T00:21:29.138Z,26.70
2023-05-13T00:23:57.822Z,28.47
2023-05-13T00:26:26.534Z,21.13
2023-05-13T00:28:54.940Z,26.80
2023-05-13T00:31:23.810Z,26.33
2023-05-13T00:33:52.310Z,24.93
2023-05-13T00:36:21.978Z,26.97
2023-05-13T00:38:50.294Z,27.13
2023-05-13T00:41:19.778Z,30.47
2023-05-13T00:43:48.420Z,28.23
2023-05-13T00:46:17.021Z,30.10
2023-05-13T00:48:45.679Z,30.20
2023-05-13T00:51:14.031Z,30.80
2023-05-13T00:53:44.455Z,29.10
2023-05-13T00:56:12.779Z,31.60
2023-05-13T00:58:41.178Z,29.93
2023-05-13T01:01:16.278Z,31.57
2023-05-13T01:03:54.722Z,31.37
2023-05-13T01:06:29.262Z,32.63
2023-05-13T01:09:04.374Z,31.73
2023-05-13T01:11:38.159Z,30.30
2023-05-13T01:14:12.002Z,30.93
2023-05-13T01:16:44.719Z,31.57
2023-05-13T01:19:27.374Z,30.33
2023-05-13T01:21:57.238Z,29.87
2023-05-13T01:24:25.667Z,30.13
2023-05-13T01:26:54.203Z,31.67
2023-05-13T01:29:22.631Z,31.23
2023-05-13T01:31:53.172Z,30.63
2023-05-13T01:34:23.165Z,30.63
2023-05-13T01:36:51.668Z,30.67
2023-05-13T01:39:22.091Z,30.47
2023-05-13T01:41:50.646Z,30.60
2023-05-13T01:44:19.098Z,31.90
2023-05-13T01:46:49.492Z,32.47
2023-05-13T01:49:18.212Z,31.70
2023-05-13T01:51:46.644Z,30.13
2023-05-13T01:54:15.056Z,29.90
2023-05-13T01:56:44.744Z,31.77
2023-05-13T01:59:13.129Z,31.57
2023-05-13T02:01:41.778Z,30.20
2023-05-13T02:04:10.251Z,30.27
2023-05-13T02:06:38.661Z,29.27
2023-05-13T02:09:07.082Z,29.03
2023-05-13T02:11:35.758Z,30.63
2023-05-13T02:14:05.681Z,30.43
2023-05-13T02:16:34.274Z,27.10
2023-05-13T02:19:02.940Z,31.03
2023-05-13T02:21:32.084Z,28.47
2023-05-13T02:24:00.588Z,31.90
2023-05-13T02:26:29.138Z,28.73
2023-05-13T02:28:57.543Z,28.23
2023-05-13T02:31:27.535Z,29.73
2023-05-13T02:33:56.031Z,29.47
2023-05-13T02:36:24.399Z,28.50
2023-05-13T02:38:52.834Z,27.70
2023-05-13T02:41:21.384Z,27.13
2023-05-13T02:43:49.818Z,29.30
2023-05-13T02:46:18.116Z,26.97
2023-05-13T02:48:47.858Z,28.73
2023-05-13T02:51:16.289Z,28.00
2023-05-13T02:53:44.689Z,25.33
2023-05-13T02:56:16.273Z,29.10
2023-05-13T02:58:44.886Z,26.90
2023-05-13T03:01:13.366Z,28.20
2023-05-13T03:03:41.818Z,27.97
2023-05-13T03:06:11.686Z,28.83
2023-05-13T03:08:40.116Z,27.27
2023-05-13T03:11:08.916Z,28.07
2023-05-13T03:13:37.415Z,27.73
2023-05-13T03:16:06.089Z,27.77
2023-05-13T03:18:34.568Z,28.73
2023-05-13T03:21:03.119Z,28.73
2023-05-13T03:23:34.503Z,26.83
2023-05-13T03:26:02.963Z,26.57
2023-05-13T03:28:31.398Z,26.37
2023-05-13T03:30:59.926Z,26.87
2023-05-13T03:33:29.919Z,26.20
2023-05-13T03:35:58.268Z,26.00
2023-05-13T03:38:26.724Z,26.73
2023-05-13T03:40:56.380Z,26.30
2023-05-13T03:43:24.910Z,26.07
2023-05-13T03:45:53.359Z,27.07
2023-05-13T03:48:21.873Z,24.37
2023-05-13T03:50:50.846Z,26.80
2023-05-13T03:53:19.302Z,23.07
2023-05-13T03:55:48.202Z,24.13
2023-05-13T03:58:19.068Z,24.60
2023-05-13T04:00:47.645Z,24.50
2023-05-13T04:03:17.285Z,25.03
2023-05-13T04:05:46.878Z,25.77
2023-05-13T04:08:15.369Z,23.97
2023-05-13T04:10:43.741Z,23.93
2023-05-13T04:13:12.442Z,22.37
2023-05-13T04:15:42.343Z,25.27
2023-05-13T04:18:10.873Z,25.50
2023-05-13T04:20:40.065Z,24.57
2023-05-13T04:23:08.831Z,23.17
2023-05-13T04:25:37.913Z,24.90
2023-05-13T04:28:07.185Z,24.53
2023-05-13T04:30:36.246Z,24.13
2023-05-13T04:33:06.730Z,23.13
2023-05-13T04:35:35.160Z,22.47
2023-05-13T04:38:03.816Z,22.00
2023-05-13T04:40:32.248Z,21.27
2023-05-13T04:43:00.662Z,21.10
2023-05-13T04:45:29.441Z,20.60
2023-05-13T04:47:58.590Z,21.10
2023-05-13T04:50:28.516Z,21.40
2023-05-13T04:52:57.866Z,22.13
2023-05-13T04:55:27.746Z,22.20
2023-05-13T04:57:56.358Z,20.37
2023-05-13T05:00:24.995Z,21.37
2023-05-13T05:02:53.550Z,21.90
2023-05-13T05:05:22.360Z,21.73
2023-05-13T05:07:52.206Z,22.50
2023-05-13T05:10:21.391Z,23.63
2023-05-13T05:12:49.975Z,23.17
2023-05-13T05:15:18.543Z,24.17
2023-05-13T05:17:47.200Z,24.50
2023-05-13T05:20:15.545Z,24.77
2023-05-13T05:22:43.972Z,26.93
2023-05-13T05:25:13.539Z,25.17
2023-05-13T05:27:41.957Z,24.77
2023-05-13T05:30:11.756Z,23.47
2023-05-13T05:32:40.337Z,22.30
2023-05-13T05:35:09.273Z,23.67
2023-05-13T05:37:37.825Z,22.63
2023-05-13T05:40:07.493Z,23.40
2023-05-13T05:42:38.093Z,22.70
2023-05-13T05:45:06.896Z,21.27
2023-05-13T05:47:35.214Z,22.13
2023-05-13T05:50:04.246Z,21.33
2023-05-13T05:52:32.638Z,22.40
2023-05-13T05:55:01.120Z,21.80
2023-05-13T05:57:29.757Z,21.70
2023-05-13T05:59:59.451Z,20.47
2023-05-13T06:02:28.081Z,20.77
2023-05-13T06:04:56.578Z,19.20
2023-05-13T06:07:24.856Z,20.60
2023-05-13T06:09:53.253Z,19.57
2023-05-13T06:12:22.826Z,18.77
2023-05-13T06:14:51.412Z,20.33
2023-05-13T06:17:20.958Z,20.07
2023-05-13T06:19:49.380Z,20.10
2023-05-13T06:22:17.827Z,20.17
2023-05-13T06:24:46.618Z,19.53
2023-05-13T06:27:15.338Z,20.53
2023-05-13T06:29:44.248Z,21.00
2023-05-13T06:32:12.949Z,20.77
2023-05-13T06:34:45.756Z,20.50
2023-05-13T06:37:14.381Z,19.63
2023-05-13T06:39:42.882Z,20.87
2023-05-13T06:42:12.981Z,20.43
2023-05-13T06:44:42.524Z,20.87
2023-05-13T06:47:16.169Z,21.47
2023-05-13T06:49:46.055Z,20.60
2023-05-13T06:52:14.420Z,18.73
2023-05-13T06:54:43.023Z,19.67
2023-05-13T06:57:12.249Z,17.33
2023-05-13T06:59:40.556Z,18.27
2023-05-13T07:02:09.971Z,19.43
2023-05-13T07:04:39.286Z,18.43
2023-05-13T07:07:08.918Z,18.70
2023-05-13T07:09:37.629Z,18.83
2023-05-13T07:12:06.693Z,16.33
2023-05-13T07:14:35.129Z,17.00
2023-05-13T07:17:04.220Z,16.73
2023-05-13T07:19:32.630Z,19.47
2023-05-13T07:22:01.041Z,16.80
2023-05-13T07:24:30.756Z,15.67
2023-05-13T07:26:59.109Z,18.13
2023-05-13T07:29:27.755Z,16.90
2023-05-13T07:31:56.253Z,17.08
2023-05-13T07:34:24.790Z,16.20
2023-05-13T07:36:53.179Z,17.33
2023-05-13T07:39:21.604Z,16.47
2023-05-13T07:41:51.513Z,17.53
2023-05-13T07:44:20.041Z,17.58
2023-05-13T07:46:48.844Z,16.63
2023-05-13T07:49:17.433Z,19.20
2023-05-13T07:51:46.138Z,17.33
2023-05-13T07:54:14.622Z,18.70
2023-05-13T07:56:44.272Z,17.47
2023-05-13T07:59:14.131Z,17.20
2023-05-13T08:01:43.230Z,18.20
2023-05-13T08:04:11.951Z,19.00
2023-05-13T08:06:40.504Z,19.17
2023-05-13T08:09:12.334Z,19.60
2023-05-13T08:11:40.742Z,18.03
2023-05-13T08:14:09.120Z,20.30
2023-05-13T08:16:39.052Z,19.57
2023-05-13T08:19:07.729Z,18.87
2023-05-13T08:21:36.182Z,18.23
2023-05-13T08:24:04.489Z,20.07
2023-05-13T08:26:33.021Z,18.43
2023-05-13T08:29:01.578Z,19.97
2023-05-13T08:31:32.109Z,20.60
2023-05-13T08:34:01.808Z,19.80
2023-05-13T08:36:30.183Z,20.07
2023-05-13T08:38:58.602Z,20.13
2023-05-13T08:41:27.470Z,20.63
2023-05-13T08:43:57.218Z,19.43
2023-05-13T08:46:28.147Z,21.53
2023-05-13T08:49:01.695Z,19.93
2023-05-13T08:51:30.203Z,21.10
2023-05-13T08:53:58.653Z,19.80
2023-05-13T08:56:29.161Z,19.50
2023-05-13T08:58:57.955Z,20.67
2023-05-13T09:01:27.603Z,18.90
2023-05-13T09:03:59.792Z,20.73
2023-05-13T09:06:29.730Z,20.37
2023-05-13T09:08:58.478Z,21.60
2023-05-13T09:11:27.531Z,17.93
2023-05-13T09:13:59.683Z,18.53
2023-05-13T09:16:30.799Z,19.47
2023-05-13T09:19:00.243Z,18.90
2023-05-13T09:21:32.407Z,18.77
2023-05-13T09:24:08.895Z,19.10
2023-05-13T09:26:39.481Z,18.03
2023-05-13T09:29:22.293Z,17.87
2023-05-13T09:31:52.627Z,18.33
2023-05-13T09:34:27.347Z,17.40
2023-05-13T09:37:04.929Z,19.17
2023-05-13T09:39:34.980Z,18.07
2023-05-13T09:42:05.392Z,18.57
2023-05-13T09:44:34.409Z,19.37
2023-05-13T09:47:03.499Z,13.47
2023-05-13T09:49:33.258Z,18.20
2023-05-13T09:52:03.054Z,18.13
2023-05-13T09:54:37.108Z,16.93
2023-05-13T09:57:06.129Z,18.67
2023-05-13T09:59:34.716Z,21.47
2023-05-13T10:02:07.137Z,17.53
2023-05-13T10:04:35.688Z,15.97
2023-05-13T10:07:07.102Z,18.87
2023-05-13T10:09:38.121Z,18.57
2023-05-13T10:12:09.206Z,20.33
2023-05-13T10:14:38.237Z,17.95
2023-05-13T10:17:07.526Z,18.20
2023-05-13T10:19:36.562Z,17.83
2023-05-13T10:22:06.790Z,19.00
2023-05-13T10:24:38.026Z,18.30
2023-05-13T10:27:08.337Z,17.23
2023-05-13T10:29:39.014Z,17.33
2023-05-13T10:32:09.215Z,18.00
2023-05-13T10:34:39.824Z,17.17
2023-05-13T10:37:43.807Z,17.60
2023-05-13T10:40:30.338Z,16.80
2023-05-13T10:43:17.235Z,17.93
2023-05-13T10:45:49.725Z,17.00
2023-05-13T10:48:19.783Z,16.67
2023-05-13T10:50:55.712Z,16.57
2023-05-13T10:53:27.564Z,17.40
2023-05-13T10:55:57.047Z,17.50
2023-05-13T10:58:30.930Z,17.83
2023-05-13T11:01:18.629Z,16.70
2023-05-13T11:03:55.080Z,17.90
2023-05-13T11:06:24.624Z,15.50
2023-05-13T11:08:56.192Z,14.33
2023-05-13T11:11:33.204Z,16.48
2023-05-13T11:14:09.520Z,15.40
2023-05-13T11:16:38.786Z,16.67
2023-05-13T11:19:19.743Z,15.68
2023-05-13T11:21:52.972Z,14.23
2023-05-13T11:24:23.483Z,14.63
2023-05-13T11:26:53.349Z,13.77
2023-05-13T11:29:32.077Z,14.47
2023-05-13T11:32:01.719Z,13.63
2023-05-13T11:34:30.653Z,12.90
2023-05-13T11:37:08.822Z,13.48
2023-05-13T11:39:40.954Z,13.10
2023-05-13T11:42:10.276Z,12.17
2023-05-13T11:44:45.978Z,13.40
2023-05-13T11:47:14.443Z,13.40
2023-05-13T11:49:44.366Z,13.82
2023-05-13T11:52:13.560Z,13.52
2023-05-13T11:54:48.654Z,12.98
2023-05-13T11:57:23.737Z,13.95
2023-05-13T11:59:58.129Z,12.75
2023-05-13T12:02:28.141Z,12.98
2023-05-13T12:04:57.057Z,14.23
2023-05-13T12:07:26.569Z,13.90
2023-05-13T12:09:58.725Z,12.57
2023-05-13T12:12:27.979Z,13.20
2023-05-13T12:14:57.837Z,13.07
2023-05-13T12:17:26.671Z,12.33
2023-05-13T12:20:14.456Z,13.03
2023-05-13T12:22:53.910Z,13.37
2023-05-13T12:25:51.469Z,14.53
2023-05-13T12:28:21.197Z,13.20
2023-05-13T12:30:54.827Z,13.65
2023-05-13T12:33:24.640Z,13.00
2023-05-13T12:35:53.990Z,13.38
2023-05-13T12:38:24.733Z,12.77
2023-05-13T12:40:55.108Z,12.18
2023-05-13T12:43:23.929Z,12.57
2023-05-13T12:45:55.227Z,10.67
2023-05-13T12:48:26.227Z,11.75
2023-05-13T12:50:54.715Z,10.93
2023-05-13T12:53:23.225Z,11.65
2023-05-13T12:55:51.593Z,12.35
2023-05-13T12:58:21.397Z,11.83
2023-05-13T13:00:50.006Z,12.07
2023-05-13T13:03:19.444Z,12.33
2023-05-13T13:05:49.084Z,12.23
2023-05-13T13:08:17.635Z,12.03
2023-05-13T13:10:46.528Z,11.60
2023-05-13T13:13:15.021Z,10.93
2023-05-13T13:15:44.830Z,10.80
2023-05-13T13:18:13.256Z,12.40
2023-05-13T13:20:42.026Z,11.87
2023-05-13T13:23:11.319Z,11.52
2023-05-13T13:25:40.197Z,11.18
2023-05-13T13:28:08.659Z,11.53
2023-05-13T13:30:37.204Z,11.23
2023-05-13T13:33:06.930Z,10.50
2023-05-13T13:35:35.426Z,10.40
2023-05-13T13:38:04.170Z,11.02
2023-05-13T13:40:32.693Z,12.03
2023-05-13T13:43:01.158Z,12.50
2023-05-13T13:45:29.638Z,13.45
2023-05-13T13:47:58.077Z,12.03
2023-05-13T13:50:31.456Z,11.77
2023-05-13T13:52:59.737Z,12.27
2023-05-13T13:55:28.484Z,12.27
2023-05-13T13:57:56.923Z,12.10
2023-05-13T14:00:25.339Z,12.18
2023-05-13T14:02:54.034Z,12.07
2023-05-13T14:05:22.671Z,11.90
2023-05-13T14:07:54.115Z,12.60
2023-05-13T14:10:23.079Z,12.18
2023-05-13T14:12:53.646Z,13.82
2023-05-13T14:15:22.085Z,12.37
2023-05-13T14:17:50.779Z,12.23
2023-05-13T14:20:19.366Z,11.83
2023-05-13T14:22:47.878Z,13.00
2023-05-13T14:25:17.920Z,14.70
2023-05-13T14:27:46.297Z,14.00
2023-05-13T14:30:15.314Z,13.50
2023-05-13T14:32:45.180Z,12.38
2023-05-13T14:35:14.520Z,13.00
2023-05-13T14:37:43.600Z,14.23
2023-05-13T14:40:12.330Z,13.47
2023-05-13T14:42:41.891Z,13.60
2023-05-13T14:45:14.522Z,14.53
2023-05-13T14:47:44.555Z,13.13
2023-05-13T14:50:15.148Z,14.73
2023-05-13T14:52:43.690Z,11.55
2023-05-13T14:55:12.679Z,12.70
2023-05-13T14:57:42.456Z,13.57
2023-05-13T15:00:11.699Z,13.17
2023-05-13T15:02:40.373Z,14.20
2023-05-13T15:05:09.395Z,12.70
2023-05-13T15:07:37.853Z,13.77
2023-05-13T15:10:07.286Z,14.87
2023-05-13T15:12:35.753Z,13.88
2023-05-13T15:15:06.058Z,13.93
2023-05-13T15:17:34.604Z,12.17
2023-05-13T15:20:03.054Z,12.63
2023-05-13T15:22:33.341Z,12.05
2023-05-13T15:25:02.600Z,11.00
2023-05-13T15:27:30.970Z,11.20
2023-05-13T15:29:59.408Z,10.98
2023-05-13T15:32:29.916Z,11.10
2023-05-13T15:34:58.422Z,10.45
2023-05-13T15:37:26.712Z,11.43
2023-05-13T15:39:55.299Z,10.48
2023-05-13T15:42:23.910Z,9.93
2023-05-13T15:44:52.295Z,11.00
2023-05-13T15:47:21.073Z,10.73
2023-05-13T15:49:53.537Z,11.23
2023-05-13T15:52:22.014Z,10.90
2023-05-13T15:54:50.434Z,11.85
2023-05-13T15:57:19.272Z,12.18
2023-05-13T15:59:47.918Z,11.55
2023-05-13T16:02:18.351Z,10.98
2023-05-13T16:04:46.937Z,11.57
2023-05-13T16:07:16.692Z,10.77
2023-05-13T16:09:45.248Z,11.20
2023-05-13T16:12:13.661Z,11.90
2023-05-13T16:14:42.092Z,11.85
2023-05-13T16:17:11.044Z,12.25
2023-05-13T16:19:39.634Z,11.50
2023-05-13T16:22:28.021Z,12.27
2023-05-13T16:24:59.216Z,10.97
2023-05-13T16:27:28.274Z,11.20
2023-05-13T16:29:57.602Z,11.63
2023-05-13T16:32:26.123Z,12.38
2023-05-13T16:34:54.793Z,11.30
2023-05-13T16:37:23.205Z,11.98
2023-05-13T16:39:52.869Z,12.23
2023-05-13T16:42:21.265Z,11.85
2023-05-13T16:44:49.697Z,12.67
2023-05-13T16:47:18.106Z,10.90
2023-05-13T16:49:48.568Z,11.23
2023-05-13T16:52:17.431Z,11.20
2023-05-13T16:54:45.930Z,12.43
2023-05-13T16:57:15.802Z,13.03
2023-05-13T16:59:44.555Z,11.00
2023-05-13T17:02:12.861Z,10.82
2023-05-13T17:04:41.310Z,11.32
2023-05-13T17:07:10.607Z,10.82
2023-05-13T17:09:39.103Z,10.17
2023-05-13T17:12:08.008Z,10.60
2023-05-13T17:14:37.755Z,11.83
2023-05-13T17:17:06.696Z,12.00
2023-05-13T17:19:35.388Z,11.77
2023-05-13T17:22:04.116Z,11.52
2023-05-13T17:24:32.674Z,11.50
2023-05-13T17:27:01.225Z,12.47
2023-05-13T17:29:29.638Z,12.57
2023-05-13T17:31:59.249Z,12.73
2023-05-13T17:34:27.774Z,12.37
2023-05-13T17:36:56.269Z,12.30
2023-05-13T17:39:24.695Z,13.17
2023-05-13T17:41:53.137Z,12.77
2023-05-13T17:44:22.853Z,13.93
2023-05-13T17:46:51.293Z,13.13
2023-05-13T17:49:21.969Z,13.43
2023-05-13T17:51:50.445Z,13.67
2023-05-13T17:54:18.857Z,13.80
2023-05-13T17:56:47.310Z,13.53
2023-05-13T17:59:15.697Z,15.10
2023-05-13T18:01:44.164Z,13.00
2023-05-13T18:04:12.690Z,12.33
2023-05-13T18:06:42.309Z,11.97
2023-05-13T18:09:11.243Z,13.27
2023-05-13T18:11:39.809Z,14.47
2023-05-13T18:14:08.249Z,13.53
2023-05-13T18:16:36.613Z,14.30
2023-05-13T18:19:06.178Z,14.07
2023-05-13T18:21:34.588Z,13.67
2023-05-13T18:24:04.224Z,13.37
2023-05-13T18:26:32.666Z,13.50
2023-05-13T18:29:01.058Z,13.50
2023-05-13T18:31:29.703Z,12.70
2023-05-13T18:33:58.047Z,13.70
2023-05-13T18:36:26.593Z,11.53
2023-05-13T18:38:54.951Z,13.40
2023-05-13T18:41:24.766Z,13.00
2023-05-13T18:43:53.149Z,12.17
2023-05-13T18:46:21.896Z,12.47
2023-05-13T18:48:50.417Z,13.47
2023-05-13T18:51:18.830Z,12.70
2023-05-13T18:53:47.234Z,12.90
2023-05-13T18:56:16.161Z,12.53
2023-05-13T18:58:46.898Z,12.23
2023-05-13T19:01:16.682Z,14.43
2023-05-13T19:03:45.401Z,14.67
2023-05-13T19:06:13.927Z,15.70
2023-05-13T19:08:42.521Z,15.97
2023-05-13T19:11:11.400Z,14.57
2023-05-13T19:16:16.023Z,13.90
2023-05-13T19:18:44.679Z,14.50
2023-05-13T19:21:13.230Z,15.80
2023-05-13T19:23:41.624Z,15.77
2023-05-13T19:26:10.455Z,16.43
2023-05-13T19:28:39.630Z,15.83
2023-05-13T19:31:08.446Z,17.97
2023-05-13T19:33:38.198Z,16.20
2023-05-13T19:36:07.266Z,15.00
2023-05-13T19:38:36.669Z,16.33
2023-05-13T19:41:05.210Z,15.00
2023-05-13T19:43:33.437Z,15.67
2023-05-13T19:46:01.905Z,15.87
2023-05-13T19:48:30.624Z,16.27
2023-05-13T19:51:00.476Z,16.70
2023-05-13T19:53:28.908Z,16.27
2023-05-13T19:55:57.561Z,16.03
2023-05-13T19:58:26.044Z,15.60
2023-05-13T20:00:54.699Z,14.90
2023-05-13T20:03:23.352Z,14.97
2023-05-13T20:05:53.065Z,15.97
2023-05-13T20:08:23.042Z,14.20
2023-05-13T20:10:51.517Z,14.97
2023-05-13T20:13:19.926Z,14.33
2023-05-13T20:15:48.460Z,14.57
2023-05-13T20:18:16.754Z,16.37
2023-05-13T20:20:46.956Z,15.70
2023-05-13T20:23:15.555Z,16.40
2023-05-13T20:25:47.193Z,17.00
2023-05-13T20:28:16.127Z,17.20
2023-05-13T20:30:44.961Z,18.07
2023-05-13T20:33:14.100Z,17.03
2023-05-13T20:35:42.523Z,18.00
2023-05-13T20:38:10.986Z,18.30
2023-05-13T20:40:39.503Z,18.00
2023-05-13T20:43:09.154Z,17.43
2023-05-13T20:45:39.663Z,18.47
2023-05-13T20:48:09.253Z,18.73
2023-05-13T20:50:37.992Z,17.60
2023-05-13T20:53:06.439Z,17.80
2023-05-13T20:55:35.173Z,18.80
2023-05-13T20:58:03.546Z,18.30
2023-05-13T21:00:33.196Z,17.30
2023-05-13T21:03:01.984Z,19.47
2023-05-13T21:05:30.419Z,20.63
2023-05-13T21:07:58.852Z,20.17
2023-05-13T21:10:27.542Z,20.17
2023-05-13T21:12:55.928Z,21.23
2023-05-13T21:15:24.371Z,21.60
2023-05-13T21:17:54.497Z,22.70
2023-05-13T21:20:23.402Z,22.23
2023-05-13T21:22:52.090Z,22.77
2023-05-13T21:25:20.644Z,20.43
2023-05-13T21:27:50.353Z,21.23
2023-05-13T21:30:18.832Z,20.03
2023-05-13T21:32:47.343Z,20.33
2023-05-13T21:35:17.624Z,20.93
2023-05-13T21:37:47.459Z,21.37
2023-05-13T21:40:16.498Z,21.73
2023-05-13T21:42:44.999Z,21.53
2023-05-13T21:45:15.034Z,22.30
2023-05-13T21:47:43.655Z,22.80
2023-05-13T21:50:12.698Z,22.60
2023-05-13T21:52:42.672Z,22.13
2023-05-13T21:55:11.428Z,22.20
2023-05-13T21:57:40.104Z,21.47
2023-05-13T22:00:15.082Z,20.03
2023-05-13T22:02:43.677Z,20.20
2023-05-13T22:05:12.430Z,22.13
2023-05-13T22:07:42.396Z,21.87
2023-05-13T22:10:11.601Z,21.63
2023-05-13T22:12:40.044Z,20.47
2023-05-13T22:15:09.416Z,21.00
2023-05-13T22:17:38.005Z,22.80
2023-05-13T22:20:07.256Z,22.53
2023-05-13T22:22:35.764Z,22.87
2023-05-13T22:25:06.066Z,24.40
2023-05-13T22:27:34.373Z,22.00
2023-05-13T22:30:03.233Z,22.33
2023-05-13T22:32:34.296Z,22.17
2023-05-13T22:35:02.831Z,22.10
2023-05-13T22:37:31.386Z,22.27
2023-05-13T22:39:59.731Z,21.30
2023-05-13T22:42:29.558Z,20.70
2023-05-13T22:44:57.929Z,19.83
2023-05-13T22:47:26.554Z,22.00
2023-05-13T22:49:54.930Z,21.50
2023-05-13T22:52:23.361Z,21.93
2023-05-13T22:54:51.754Z,22.73
2023-05-13T22:57:20.163Z,21.83
2023-05-13T22:59:49.881Z,22.43
2023-05-13T23:02:18.341Z,21.93
2023-05-13T23:04:46.635Z,22.60
2023-05-13T23:07:15.065Z,22.23
2023-05-13T23:09:43.611Z,22.40
2023-05-13T23:12:12.155Z,20.83
2023-05-13T23:14:40.641Z,21.87
2023-05-13T23:17:10.580Z,22.87
2023-05-13T23:19:39.241Z,22.53
2023-05-13T23:22:07.916Z,21.90
2023-05-13T23:24:36.375Z,22.23
2023-05-13T23:27:04.969Z,22.50
2023-05-13T23:29:33.375Z,21.23
2023-05-13T23:32:02.490Z,21.27
2023-05-13T23:34:33.517Z,21.30
2023-05-13T23:37:02.013Z,21.83
2023-05-13T23:39:30.660Z,21.83
2023-05-13T23:41:59.121Z,22.37
2023-05-13T23:44:27.520Z,23.47
2023-05-13T23:46:56.178Z,22.63
2023-05-13T23:49:25.007Z,23.00
2023-05-13T23:51:54.780Z,22.63
2023-05-13T23:54:23.271Z,23.33
2023-05-13T23:56:52.114Z,23.40
2023-05-13T23:59:20.552Z,24.27
